Nearby METAR Reports

 

KIND - Indianapolis, Indiana, USA
Distance from station: SW 6mi, 9km
Updated: Jan 29 2020 12:54am
Overcast
Overcast
 Wind from N
Wind: N 5 mph , 7 km/h
Temperature: 32°F , 0°C
Wind Chill: 27°F , -3°C
Dew Point: 28°F , -2°C
Humidity: 87%
Barometer: 30.11 inHg , 1019.6 hPa
Clouds: Overcast
Visibility: 9 miles , 14 km
Cloud details: Few Clouds 900 ft
Overcast 1900 ft
2020/01/29 05:54 KIND 290554Z 01004KT 9SM FEW009 OVC019 00/M02 A3011 RMK AO2 SLP203 T00001017 10000 20000 50001
KEYE - Indianapolis, Indiana, USA
Distance from station: NW 5mi, 8km
Updated: Jan 29 2020 1:02am
Overcast
Overcast
 Wind from calm
Wind: Calm
Temperature: 32°F , 0°C
Dew Point: 28°F , -2°C
Humidity: 87%
Barometer: 30.10 inHg , 1019.3 hPa
Clouds: Overcast
Visibility: 9 miles , 14 km
Cloud details: Partly Cloudy 1100 ft
Overcast 1800 ft
2020/01/29 06:02 KEYE 290602Z AUTO 00000KT 9SM SCT011 OVC018 00/M02 A3010 RMK AO2 T00001017
 
KTYQ - Indianapolis Exc, Indiana, USA
Distance from station: N 17mi, 28km
Updated: Jan 29 2020 1:15am
Overcast
Overcast
 Wind from calm
Wind: Calm
Temperature: 30°F , -1°C
Dew Point: 30°F , -1°C
Humidity: 100%
Barometer: 30.11 inHg , 1019.6 hPa
Clouds: Overcast
Visibility: 7 miles , 11 km
Cloud details: Overcast 2100 ft
2020/01/29 06:15 KTYQ 290615Z AUTO 00000KT 7SM OVC021 M01/M01 A3011 RMK AO2 T10121012
KGEZ - Shelbyville, Indiana, USA
Distance from station: ESE 27mi, 43km
Updated: Jan 29 2020 12:53am
Mist, Overcast
Mist, Overcast
 Wind from ENE
Wind: ENE 5 mph , 7 km/h
Temperature: 34°F , 1°C
Wind Chill: 29°F , -2°C
Dew Point: 30°F , -1°C
Humidity: 87%
Barometer: 30.11 inHg , 1019.6 hPa
Summary: Mist
Clouds: Overcast
Visibility: 5 miles , 8 km
Cloud details: Overcast 2200 ft
2020/01/29 05:53 KGEZ 290553Z AUTO 07004KT 5SM BR OVC022 01/M01 A3011 RMK AO2 SLP202 T00111011 10017 20011 51002
 
KAID - Anderson Municip, Indiana, USA
Distance from station: NE 40mi, 64km
Updated: Jan 29 2020 1:35am
Overcast
Overcast
 Wind from NE
Wind: NE 3 mph , 6 km/h
Temperature: 32°F , 0°C
Dew Point: 28°F , -2°C
Humidity: 87%
Barometer: 30.11 inHg , 1019.6 hPa
Clouds: Overcast
Visibility: 7 miles , 11 km
Cloud details: Overcast 2100 ft
2020/01/29 06:35 KAID 290635Z AUTO 04003KT 7SM OVC021 00/M02 A3011 RMK AO2 T10031022
KBAK - Columbus/Balkala, Indiana, USA
Distance from station: SSE 40mi, 64km
Updated: Jan 28 2020 9:45pm
NOT Current
Overcast
Overcast
 Wind from calm
Wind: Calm
Temperature: 32°F , 0°C
Dew Point: 27°F , -3°C
Humidity: 80%
Barometer: 30.12 inHg , 1020 hPa
Clouds: Overcast
Visibility: 10 miles , 16 km
Cloud details: Overcast 1900 ft
2020/01/29 02:45 KBAK 290245Z 00000KT 10SM OVC019 00/M03 A3012
 
KBMG - Bloomington, Indiana, USA
Distance from station: SSW 48mi, 78km
Updated: Jan 29 2020 12:53am
Overcast
Overcast
 Wind from calm
Wind: Calm
Temperature: 32°F , 0°C
Dew Point: 28°F , -2°C
Humidity: 87%
Barometer: 30.11 inHg , 1019.6 hPa
Clouds: Overcast
Visibility: 10 miles , 16 km
Cloud details: Overcast 1900 ft
2020/01/29 05:53 KBMG 290553Z AUTO 00000KT 10SM OVC019 00/M02 A3011 RMK AO2 SLP202 T00001022 10006 20000 53002
KOKK - Kokomo, Indiana, USA
Distance from station: N 53mi, 85km
Updated: Jan 29 2020 12:56am
Overcast
Overcast
 Wind from calm
Wind: Calm
Temperature: 30°F , -1°C
Dew Point: 30°F , -1°C
Humidity: 100%
Barometer: 30.12 inHg , 1020 hPa
Clouds: Overcast
Visibility: 10 miles , 16 km
Cloud details: Overcast 2300 ft
2020/01/29 05:56 KOKK 290556Z AUTO 00000KT 10SM OVC023 M01/M01 A3012 RMK AO2 SLP209 60000 T10111011 11006 21011 56000 FZRANO